Time;durP1;ratioP1;P1;durP2;ratioP2;P2;SDS_P1;SDS_P2;PMS_P1;PMS_P2;Temp;Humidity;BMP_temperature;BMP_pressure;BME280_temperature;BME280_humidity;BME280_pressure;Samples;Min_cycle;Max_cycle;Signal;HPM_P1;HPM_P2
2022/11/08 00:01:34;;;;;;;8.98;5.53;;;6.50;86.70;;;;;;5072195;28;20193;-67
2022/11/08 00:04:03;;;;;;;9.18;4.30;;;6.40;86.70;;;;;;5071137;28;20185;-67
2022/11/08 00:14:48;;;;;;;5.72;3.90;;;6.20;86.50;;;;;;5076601;28;20283;-66
2022/11/08 00:17:17;;;;;;;6.45;4.32;;;6.20;87.10;;;;;;5075904;28;20628;-67
2022/11/08 00:19:44;;;;;;;7.03;4.00;;;6.10;87.80;;;;;;5076089;28;20670;-67
2022/11/08 00:22:11;;;;;;;5.63;3.88;;;6.10;88.00;;;;;;5075803;28;20182;-67
2022/11/08 00:24:39;;;;;;;5.95;4.50;;;6.10;87.80;;;;;;5075853;28;20277;-67
2022/11/08 00:27:10;;;;;;;7.45;5.65;;;6.00;87.70;;;;;;5075302;28;20186;-66
2022/11/08 00:29:38;;;;;;;8.25;5.05;;;6.00;87.90;;;;;;5075973;28;20569;-67
2022/11/08 00:32:08;;;;;;;8.88;5.05;;;6.00;87.60;;;;;;5075453;28;20189;-67
2022/11/08 00:34:36;;;;;;;7.35;4.80;;;5.90;87.80;;;;;;5075840;28;20272;-68
2022/11/08 00:37:03;;;;;;;9.32;6.05;;;5.80;88.30;;;;;;5075275;28;20189;-67
2022/11/08 00:39:30;;;;;;;8.25;5.53;;;5.70;89.60;;;;;;5075839;28;20201;-67
2022/11/08 00:41:57;;;;;;;7.88;4.80;;;5.70;90.00;;;;;;5075397;28;20190;-67
2022/11/08 00:44:26;;;;;;;10.18;6.82;;;5.70;90.00;;;;;;5075927;28;20200;-66
2022/11/08 00:46:54;;;;;;;10.48;5.97;;;5.70;90.00;;;;;;5074952;28;20177;-66
2022/11/08 00:49:21;;;;;;;7.55;6.32;;;5.70;89.40;;;;;;5075318;28;20197;-67
2022/11/08 00:51:48;;;;;;;9.98;6.38;;;5.70;89.40;;;;;;5075211;28;20194;-66
2022/11/08 00:54:17;;;;;;;9.02;6.15;;;5.60;88.20;;;;;;5075146;28;20190;-66
2022/11/08 00:56:45;;;;;;;9.88;6.45;;;5.50;88.20;;;;;;5075057;28;20284;-67
2022/11/08 00:59:12;;;;;;;10.75;7.22;;;5.50;88.80;;;;;;5075166;28;20194;-66
2022/11/08 01:01:42;;;;;;;9.35;6.30;;;5.50;89.20;;;;;;5074928;28;20182;-66
2022/11/08 01:04:10;;;;;;;8.52;5.43;;;5.50;88.40;;;;;;5075315;28;20209;-67
2022/11/08 01:06:39;;;;;;;7.60;5.40;;;5.50;88.90;;;;;;5074722;28;20647;-67
2022/11/08 01:09:07;;;;;;;8.20;4.90;;;5.50;88.70;;;;;;5075108;28;20276;-66
2022/11/08 01:11:34;;;;;;;8.63;5.47;;;5.50;88.70;;;;;;5074673;28;20550;-67
2022/11/08 01:14:02;;;;;;;5.85;4.65;;;5.50;88.80;;;;;;5074813;28;20631;-67
2022/11/08 01:16:32;;;;;;;6.55;4.88;;;5.50;89.10;;;;;;5074754;28;20182;-66
2022/11/08 01:19:02;;;;;;;8.05;4.45;;;5.50;89.10;;;;;;5075145;28;20590;-66
2022/11/08 01:21:30;;;;;;;8.18;6.22;;;5.50;88.70;;;;;;5074385;28;20205;-67
2022/11/08 01:23:57;;;;;;;10.25;4.95;;;5.50;88.30;;;;;;5075155;28;20190;-66
2022/11/08 01:26:29;;;;;;;7.45;4.75;;;5.50;88.40;;;;;;5074368;28;20265;-66
2022/11/08 01:28:58;;;;;;;7.60;4.10;;;5.40;88.20;;;;;;5074666;28;20282;-67
2022/11/08 01:31:27;;;;;;;4.68;3.90;;;5.40;87.90;;;;;;5074338;28;20209;-66
2022/11/08 01:33:55;;;;;;;6.65;4.10;;;5.40;87.50;;;;;;5074992;28;20196;-67
2022/11/08 01:36:25;;;;;;;4.78;4.05;;;5.30;88.00;;;;;;5074164;28;21055;-67
2022/11/08 01:38:53;;;;;;;5.13;3.78;;;5.30;87.60;;;;;;5074658;28;20546;-67
2022/11/08 01:41:22;;;;;;;5.03;3.38;;;5.20;87.20;;;;;;5074101;28;20188;-67
2022/11/08 01:43:51;;;;;;;6.35;3.88;;;5.10;87.10;;;;;;5074268;28;20185;-67
2022/11/08 01:46:40;;;;;;;4.88;3.92;;;5.00;87.50;;;;;;5074104;28;20654;-67
2022/11/08 01:49:20;;;;;;;7.57;4.35;;;4.90;87.50;;;;;;5074884;28;20279;-67
2022/11/08 01:51:55;;;;;;;5.55;4.45;;;4.90;87.90;;;;;;5073841;28;20275;-67
2022/11/08 01:54:27;;;;;;;5.50;4.15;;;4.90;88.50;;;;;;5074544;28;20192;-67
2022/11/08 01:56:56;;;;;;;5.95;4.00;;;4.90;89.80;;;;;;5073988;28;20217;-67
2022/11/08 01:59:24;;;;;;;6.25;4.10;;;4.80;90.20;;;;;;5074293;28;20193;-66
2022/11/08 02:01:52;;;;;;;6.30;4.28;;;4.80;90.00;;;;;;5073668;28;20653;-66
2022/11/08 02:04:20;;;;;;;5.20;3.90;;;4.90;89.60;;;;;;5074002;28;20268;-66
2022/11/08 02:06:49;;;;;;;5.25;3.78;;;4.80;88.90;;;;;;5073966;28;20185;-67
2022/11/08 02:09:18;;;;;;;7.93;4.50;;;4.80;88.40;;;;;;5073943;28;20197;-67
2022/11/08 02:11:48;;;;;;;5.80;3.40;;;4.80;88.30;;;;;;5073435;28;20209;-66
2022/11/08 02:14:16;;;;;;;4.60;3.30;;;4.80;87.70;;;;;;5073889;28;20221;-66
2022/11/08 02:16:44;;;;;;;5.70;3.58;;;4.80;87.50;;;;;;5073495;28;20178;-67
2022/11/08 02:19:20;;;;;;;4.30;2.90;;;4.80;86.60;;;;;;5073592;28;20273;-67
2022/11/08 02:21:55;;;;;;;7.32;3.25;;;4.80;86.70;;;;;;5073496;28;20174;-68
2022/11/08 02:24:24;;;;;;;4.70;3.30;;;4.70;87.10;;;;;;5073843;28;20291;-67
2022/11/08 02:26:53;;;;;;;3.85;2.80;;;4.70;87.50;;;;;;5073015;28;20202;-67
2022/11/08 02:29:26;;;;;;;3.78;2.65;;;4.60;87.70;;;;;;5073525;28;20560;-67
2022/11/08 02:31:54;;;;;;;5.60;2.72;;;4.60;87.60;;;;;;5072071;28;20526;-67
2022/11/08 02:34:25;;;;;;;3.85;2.70;;;4.70;87.90;;;;;;5053602;28;20202;-67
2022/11/08 02:36:52;;;;;;;3.90;2.20;;;4.70;88.50;;;;;;5068213;28;20185;-67
2022/11/08 02:39:19;;;;;;;4.40;2.60;;;4.70;88.90;;;;;;5073275;28;20189;-67
2022/11/08 02:41:48;;;;;;;3.97;2.85;;;4.70;88.70;;;;;;5073062;28;20186;-67
2022/11/08 02:44:15;;;;;;;3.97;2.33;;;4.70;87.90;;;;;;5073230;28;20659;-67
2022/11/08 02:46:42;;;;;;;4.80;2.90;;;4.60;86.90;;;;;;5072734;28;20194;-67
2022/11/08 02:49:09;;;;;;;4.60;3.28;;;4.60;86.80;;;;;;5071120;28;20292;-67
2022/11/08 02:51:37;;;;;;;3.45;2.50;;;4.60;87.20;;;;;;5072663;28;20209;-67
2022/11/08 02:54:04;;;;;;;3.78;2.40;;;4.50;87.30;;;;;;5073342;28;20189;-67
2022/11/08 02:56:31;;;;;;;4.07;2.47;;;4.50;87.10;;;;;;5072501;28;20189;-67
2022/11/08 02:59:00;;;;;;;4.35;2.50;;;4.40;86.70;;;;;;5073229;28;20539;-67
2022/11/08 03:01:28;;;;;;;3.80;2.50;;;4.40;86.80;;;;;;5072429;28;20196;-67
2022/11/08 03:03:55;;;;;;;6.97;2.80;;;4.40;87.20;;;;;;5073060;28;20190;-67
2022/11/08 03:06:22;;;;;;;4.60;3.28;;;4.40;87.60;;;;;;5072331;28;20189;-67
2022/11/08 03:08:49;;;;;;;4.22;2.70;;;4.30;88.30;;;;;;5072810;28;20193;-67
2022/11/08 03:11:16;;;;;;;3.53;2.65;;;4.30;88.30;;;;;;5072149;28;20201;-67
2022/11/08 03:13:43;;;;;;;5.50;2.80;;;4.30;87.90;;;;;;5072415;28;20182;-68
2022/11/08 03:16:12;;;;;;;4.22;2.90;;;4.30;88.00;;;;;;5072348;28;20257;-67
2022/11/08 03:18:39;;;;;;;3.90;2.50;;;4.20;88.00;;;;;;5072912;28;20223;-66
2022/11/08 03:21:07;;;;;;;3.75;2.25;;;4.20;88.10;;;;;;5072183;28;20528;-67
2022/11/08 03:23:34;;;;;;;3.45;1.92;;;4.20;88.30;;;;;;5072661;28;20528;-67
2022/11/08 03:26:04;;;;;;;5.45;2.17;;;4.20;88.30;;;;;;5072234;28;20185;-67
2022/11/08 03:28:32;;;;;;;3.45;2.20;;;4.20;88.00;;;;;;5072383;28;20218;-67
2022/11/08 03:30:59;;;;;;;8.00;2.20;;;4.20;87.10;;;;;;5072059;28;20263;-67
2022/11/08 03:33:28;;;;;;;3.55;2.22;;;4.10;86.90;;;;;;5072413;28;20574;-67
2022/11/08 03:35:55;;;;;;;4.63;2.42;;;4.20;86.70;;;;;;5072134;28;20174;-68
2022/11/08 03:38:22;;;;;;;3.88;2.03;;;4.20;87.30;;;;;;5072267;28;20197;-67
2022/11/08 03:40:49;;;;;;;3.08;1.80;;;4.20;87.60;;;;;;5071920;28;20505;-67
2022/11/08 03:43:16;;;;;;;2.70;1.90;;;4.20;88.60;;;;;;5071654;28;20186;-67
2022/11/08 03:45:45;;;;;;;4.70;1.85;;;4.30;89.00;;;;;;5072277;28;20182;-67
2022/11/08 03:48:12;;;;;;;2.47;1.77;;;4.30;88.20;;;;;;5072147;28;20640;-67
2022/11/08 03:50:41;;;;;;;3.38;2.00;;;4.20;87.00;;;;;;5071480;28;20208;-67
2022/11/08 03:53:08;;;;;;;2.70;1.42;;;4.10;86.70;;;;;;5072054;28;20194;-67
2022/11/08 03:55:37;;;;;;;3.42;2.10;;;4.10;87.40;;;;;;5071799;28;20178;-67
2022/11/08 03:58:04;;;;;;;2.88;2.10;;;4.00;88.40;;;;;;5072303;28;20185;-67
2022/11/08 04:00:31;;;;;;;3.00;2.00;;;4.00;89.40;;;;;;5071582;28;20190;-67
2022/11/08 04:03:03;;;;;;;3.20;1.52;;;4.00;89.90;;;;;;5072399;28;20255;-67
2022/11/08 04:05:31;;;;;;;2.53;1.35;;;4.00;89.90;;;;;;5071774;28;20228;-68
2022/11/08 04:07:59;;;;;;;4.75;3.55;;;4.00;90.10;;;;;;5071911;28;20182;-67
2022/11/08 04:10:27;;;;;;;6.18;3.90;;;4.00;89.40;;;;;;5071515;28;20347;-68
2022/11/08 04:15:39;;;;;;;8.60;4.43;;;4.00;90.10;;;;;;5072318;28;20726;-67
2022/11/08 04:23:58;;;;;;;7.10;4.78;;;4.00;90.50;;;;;;5029944;28;20184;-67
2022/11/08 04:26:25;;;;;;;5.80;4.00;;;4.10;90.70;;;;;;5019509;28;20258;-67
2022/11/08 04:28:52;;;;;;;4.63;3.50;;;4.20;90.80;;;;;;5030771;28;20763;-67
2022/11/08 04:31:20;;;;;;;4.45;3.28;;;4.20;90.80;;;;;;5061754;28;20209;-67
2022/11/08 04:33:47;;;;;;;5.47;2.00;;;4.10;90.20;;;;;;5072065;28;20204;-66
2022/11/08 04:36:16;;;;;;;6.60;2.13;;;4.00;90.10;;;;;;5071606;28;20644;-66
2022/11/08 04:38:47;;;;;;;3.53;2.35;;;4.00;90.40;;;;;;5072106;28;20197;-67
2022/11/08 04:41:18;;;;;;;4.13;2.50;;;4.00;90.60;;;;;;5071784;28;20538;-66
2022/11/08 04:43:45;;;;;;;4.25;2.13;;;4.00;90.50;;;;;;5072009;28;20186;-67
2022/11/08 04:46:14;;;;;;;2.42;1.80;;;3.90;90.30;;;;;;5071632;28;20583;-67
2022/11/08 04:48:42;;;;;;;4.30;2.20;;;3.90;90.00;;;;;;5071921;28;20193;-67
2022/11/08 04:51:12;;;;;;;4.63;2.05;;;3.90;90.60;;;;;;5071544;28;20213;-67
2022/11/08 04:53:45;;;;;;;3.38;2.10;;;3.80;91.00;;;;;;5072016;28;20618;-67
2022/11/08 04:56:18;;;;;;;5.40;2.30;;;3.90;92.40;;;;;;5074568;28;20261;-67
2022/11/08 04:58:47;;;;;;;2.75;2.03;;;3.90;92.70;;;;;;5075628;28;20190;-67
2022/11/08 05:01:15;;;;;;;4.07;1.90;;;3.80;91.60;;;;;;5075088;28;20220;-67
2022/11/08 05:03:46;;;;;;;3.00;2.20;;;3.80;91.50;;;;;;5075169;28;20189;-67
2022/11/08 05:06:15;;;;;;;3.13;2.13;;;3.70;91.20;;;;;;5075400;28;20219;-67
2022/11/08 05:08:44;;;;;;;5.20;2.40;;;3.70;91.20;;;;;;5075349;28;20239;-67
2022/11/08 05:11:13;;;;;;;4.72;2.92;;;3.70;91.40;;;;;;5072388;28;20205;-67
2022/11/08 05:13:42;;;;;;;6.80;3.60;;;3.50;92.10;;;;;;5074984;28;20207;-67
2022/11/08 05:16:13;;;;;;;4.93;3.60;;;3.50;92.10;;;;;;5075359;28;20182;-67
2022/11/08 05:18:40;;;;;;;6.72;4.20;;;3.50;92.30;;;;;;5075167;28;20209;-67
2022/11/08 05:23:54;;;;;;;4.93;2.85;;;3.60;90.70;;;;;;5074807;28;20359;-68
2022/11/08 05:26:21;;;;;;;4.15;2.75;;;3.60;91.00;;;;;;5075117;28;20186;-67
2022/11/08 05:28:50;;;;;;;6.30;3.80;;;3.60;91.60;;;;;;5074818;28;20214;-67
2022/11/08 05:31:18;;;;;;;6.22;4.28;;;3.60;91.10;;;;;;5074535;28;20209;-66
2022/11/08 05:33:45;;;;;;;6.78;4.00;;;3.60;90.60;;;;;;5074985;28;20212;-67
2022/11/08 05:36:18;;;;;;;9.30;5.15;;;3.60;90.30;;;;;;5074549;28;20276;-67
2022/11/08 05:38:45;;;;;;;7.70;5.50;;;3.60;90.50;;;;;;5074985;28;20272;-67
2022/11/08 05:41:15;;;;;;;7.00;4.80;;;3.60;90.70;;;;;;5074238;28;20186;-67
2022/11/08 05:43:43;;;;;;;9.82;5.85;;;3.60;91.10;;;;;;5074985;28;20190;-67
2022/11/08 05:46:12;;;;;;;8.50;5.22;;;3.60;91.20;;;;;;5074570;28;20185;-67
2022/11/08 05:48:39;;;;;;;5.85;4.35;;;3.60;91.10;;;;;;5074695;28;20651;-67
2022/11/08 05:51:06;;;;;;;5.55;3.67;;;3.60;91.20;;;;;;5073732;28;20202;-67
2022/11/08 05:53:33;;;;;;;4.75;3.25;;;3.60;91.40;;;;;;5074779;28;20190;-67
2022/11/08 05:56:02;;;;;;;6.35;5.00;;;3.60;91.40;;;;;;5074505;28;20518;-67
2022/11/08 05:58:31;;;;;;;5.22;3.70;;;3.60;91.40;;;;;;5074772;28;20189;-66
2022/11/08 06:01:01;;;;;;;7.45;4.25;;;3.60;91.10;;;;;;5073992;28;20185;-67
2022/11/08 06:03:30;;;;;;;4.63;3.38;;;3.60;90.70;;;;;;5074647;28;20198;-66
2022/11/08 06:06:06;;;;;;;4.88;3.63;;;3.70;90.50;;;;;;5073063;28;20235;-66
2022/11/08 06:08:33;;;;;;;7.30;4.53;;;3.70;90.60;;;;;;5073822;28;20583;-66
2022/11/08 06:11:04;;;;;;;6.07;3.60;;;3.70;90.60;;;;;;5073929;28;20267;-66
2022/11/08 06:13:32;;;;;;;3.85;2.88;;;3.60;90.50;;;;;;5073867;28;20177;-66
2022/11/08 06:16:03;;;;;;;6.00;4.05;;;3.60;90.00;;;;;;5073948;28;20269;-66
2022/11/08 06:18:33;;;;;;;12.85;7.15;;;3.50;88.80;;;;;;5073908;28;20193;-66
2022/11/08 06:21:00;;;;;;;11.10;7.13;;;3.50;89.80;;;;;;5073863;28;20232;-66
2022/11/08 06:23:27;;;;;;;8.50;5.90;;;3.40;90.80;;;;;;5074052;28;20190;-66
2022/11/08 06:25:54;;;;;;;8.88;5.80;;;3.50;90.70;;;;;;5073595;28;20201;-66
2022/11/08 06:28:21;;;;;;;5.53;4.60;;;3.50;90.90;;;;;;5073151;28;20214;-66
2022/11/08 06:30:49;;;;;;;7.30;4.55;;;3.50;91.00;;;;;;5071358;28;20230;-66
2022/11/08 06:33:16;;;;;;;9.95;4.35;;;3.60;91.40;;;;;;5073961;28;20679;-66
2022/11/08 06:35:45;;;;;;;5.68;4.57;;;3.80;91.70;;;;;;5073399;28;20193;-66
2022/11/08 06:38:12;;;;;;;8.25;5.30;;;3.90;91.40;;;;;;5073485;28;20189;-66
2022/11/08 06:40:40;;;;;;;8.95;5.75;;;4.10;91.10;;;;;;5073440;28;20557;-66
2022/11/08 06:43:07;;;;;;;12.75;6.82;;;4.30;90.90;;;;;;5073466;28;20532;-66
2022/11/08 06:45:36;;;;;;;15.00;6.97;;;4.50;90.20;;;;;;5073116;28;20239;-67
2022/11/08 06:48:05;;;;;;;10.30;7.07;;;4.80;90.90;;;;;;5073212;28;20265;-66
2022/11/08 06:50:33;;;;;;;6.47;4.90;;;5.10;90.60;;;;;;5072994;28;20224;-67
2022/11/08 06:53:04;;;;;;;6.07;3.70;;;5.20;89.60;;;;;;5073392;28;20274;-66
2022/11/08 06:55:32;;;;;;;5.03;3.20;;;5.40;90.30;;;;;;5073031;28;20182;-66
2022/11/08 06:58:00;;;;;;;7.93;3.78;;;5.70;90.10;;;;;;5072987;28;20190;-66
2022/11/08 07:00:27;;;;;;;9.43;3.13;;;6.00;89.50;;;;;;5073011;28;20901;-66
2022/11/08 07:02:55;;;;;;;4.25;2.97;;;6.30;89.00;;;;;;5073546;28;20200;-66
2022/11/08 07:05:23;;;;;;;4.38;2.97;;;6.60;88.40;;;;;;5072968;28;20178;-66
2022/11/08 07:07:51;;;;;;;5.68;3.70;;;6.90;85.10;;;;;;5062984;28;20264;-66
2022/11/08 07:10:21;;;;;;;6.18;3.83;;;7.30;84.70;;;;;;5072763;28;20280;-66
2022/11/08 07:12:49;;;;;;;6.50;3.75;;;7.50;82.10;;;;;;5073041;28;20228;-66
2022/11/08 07:15:17;;;;;;;3.40;2.40;;;7.90;83.10;;;;;;5072722;28;20196;-66
2022/11/08 07:17:44;;;;;;;4.88;3.25;;;8.30;80.90;;;;;;5072699;28;20228;-66
2022/11/08 07:20:12;;;;;;;3.10;2.50;;;8.60;78.00;;;;;;5072818;28;20186;-67
2022/11/08 07:22:39;;;;;;;3.67;2.30;;;9.00;77.10;;;;;;5053124;28;20644;-66
2022/11/08 07:25:08;;;;;;;4.65;3.00;;;9.10;74.40;;;;;;5053241;28;20182;-66
2022/11/08 07:27:36;;;;;;;5.82;3.60;;;9.30;75.00;;;;;;5071931;28;20590;-66
2022/11/08 07:30:04;;;;;;;4.03;3.20;;;9.60;71.50;;;;;;5073048;28;20529;-66
2022/11/08 07:32:32;;;;;;;4.60;3.60;;;9.70;69.30;;;;;;5072496;28;20679;-66
2022/11/08 07:34:59;;;;;;;9.95;3.55;;;10.10;67.60;;;;;;5073239;28;20277;-66
2022/11/08 07:37:26;;;;;;;4.35;3.67;;;10.30;65.30;;;;;;5072372;28;20227;-66
2022/11/08 07:39:53;;;;;;;4.15;3.05;;;10.40;64.60;;;;;;5073127;28;20189;-66
2022/11/08 07:42:20;;;;;;;6.70;3.08;;;10.80;65.00;;;;;;5072455;28;20579;-67
2022/11/08 07:44:49;;;;;;;3.63;2.65;;;11.10;65.70;;;;;;5072667;28;20580;-66
2022/11/08 07:47:16;;;;;;;4.50;2.95;;;11.50;61.10;;;;;;5072144;28;20231;-66
2022/11/08 07:49:43;;;;;;;4.53;2.83;;;11.70;60.80;;;;;;5072484;28;20382;-67
2022/11/08 07:52:10;;;;;;;5.32;3.00;;;12.00;58.70;;;;;;5072519;28;20748;-66
2022/11/08 07:54:37;;;;;;;4.32;2.95;;;11.90;58.00;;;;;;5072721;28;20201;-68
2022/11/08 07:57:05;;;;;;;5.30;3.50;;;11.90;57.90;;;;;;5071806;28;20675;-67
2022/11/08 07:59:32;;;;;;;5.28;3.28;;;11.60;57.90;;;;;;5072009;28;20189;-67
2022/11/08 08:02:01;;;;;;;4.10;3.50;;;11.50;58.40;;;;;;5071138;28;20530;-66
2022/11/08 08:04:29;;;;;;;4.65;3.00;;;11.60;58.50;;;;;;5072395;28;20193;-67
2022/11/08 08:06:57;;;;;;;3.85;3.38;;;11.70;58.60;;;;;;5072308;28;20189;-67
2022/11/08 08:09:25;;;;;;;7.80;3.65;;;11.70;58.50;;;;;;5072633;28;20189;-67
2022/11/08 08:11:52;;;;;;;9.43;6.40;;;12.00;58.60;;;;;;5072089;28;20308;-66
2022/11/08 08:14:19;;;;;;;9.95;6.75;;;12.40;58.90;;;;;;5071043;28;20235;-67
2022/11/08 08:16:46;;;;;;;6.18;4.10;;;12.90;58.40;;;;;;5071718;28;20182;-67
2022/11/08 08:19:15;;;;;;;5.68;4.82;;;13.20;56.90;;;;;;5072691;28;20531;-67
2022/11/08 08:21:42;;;;;;;7.05;5.03;;;13.30;56.80;;;;;;5072358;28;20282;-66
2022/11/08 08:24:11;;;;;;;7.68;4.53;;;13.50;57.00;;;;;;5071625;28;20187;-67
2022/11/08 08:26:38;;;;;;;6.75;4.50;;;14.00;56.70;;;;;;5055993;28;20193;-67
2022/11/08 08:29:05;;;;;;;10.70;6.90;;;14.30;54.00;;;;;;5071988;28;20214;-67
2022/11/08 08:31:33;;;;;;;14.17;8.27;;;15.10;54.90;;;;;;5075954;28;21430;-67
2022/11/08 08:34:00;;;;;;;7.47;6.30;;;15.10;50.10;;;;;;5076534;28;20445;-67
2022/11/08 08:36:29;;;;;;;7.07;4.80;;;14.50;50.80;;;;;;5075968;28;20930;-67
2022/11/08 08:38:57;;;;;;;6.80;6.07;;;14.00;51.70;;;;;;5074575;28;20436;-69
2022/11/08 08:41:24;;;;;;;7.63;6.20;;;13.80;52.40;;;;;;5054519;28;20444;-67
2022/11/08 08:43:51;;;;;;;8.20;5.53;;;13.60;53.00;;;;;;5075996;28;20434;-67
2022/11/08 08:46:19;;;;;;;6.37;5.37;;;13.60;53.60;;;;;;5076153;28;20486;-67
2022/11/08 08:48:46;;;;;;;6.50;4.03;;;13.90;55.00;;;;;;5075363;28;20780;-67
2022/11/08 08:51:13;;;;;;;6.70;3.90;;;14.30;53.70;;;;;;5076109;28;20449;-67
2022/11/08 08:53:42;;;;;;;5.37;3.63;;;14.60;52.90;;;;;;5075748;28;20500;-67
2022/11/08 08:56:09;;;;;;;5.97;3.80;;;15.30;54.00;;;;;;5075662;28;20442;-66
2022/11/08 08:58:37;;;;;;;6.00;4.50;;;16.50;50.80;;;;;;5075444;28;20428;-67
2022/11/08 09:01:07;;;;;;;7.77;5.80;;;17.20;48.20;;;;;;5075789;28;20443;-67
2022/11/08 09:03:39;;;;;;;6.97;4.50;;;18.10;47.30;;;;;;5075968;28;20438;-67
2022/11/08 09:06:06;;;;;;;6.50;4.50;;;19.30;44.80;;;;;;5075595;28;20489;-67
2022/11/08 09:08:34;;;;;;;5.37;4.77;;;20.30;42.90;;;;;;5071856;28;20442;-67
2022/11/08 09:11:03;;;;;;;7.00;4.50;;;21.20;41.10;;;;;;5072998;28;20461;-67
2022/11/08 09:13:31;;;;;;;6.43;5.27;;;21.90;39.30;;;;;;5074015;28;20546;-67
2022/11/08 09:16:00;;;;;;;5.17;4.10;;;22.60;38.00;;;;;;5073832;28;20432;-67
2022/11/08 09:18:27;;;;;;;5.53;4.33;;;23.20;38.00;;;;;;5073838;28;20562;-68
2022/11/08 09:20:57;;;;;;;4.30;2.80;;;23.80;37.60;;;;;;5073934;28;20428;-67
2022/11/08 09:23:24;;;;;;;3.67;1.73;;;24.40;36.00;;;;;;5074045;28;20513;-67
2022/11/08 09:25:57;;;;;;;3.70;2.30;;;24.90;34.40;;;;;;5074362;28;20893;-67
2022/11/08 09:28:25;;;;;;;5.03;2.77;;;25.30;33.60;;;;;;5069653;28;20459;-68
2022/11/08 09:30:52;;;;;;;4.43;2.37;;;25.70;33.20;;;;;;5073867;28;20468;-67
2022/11/08 09:33:19;;;;;;;4.93;2.13;;;25.40;31.80;;;;;;5074119;28;20528;-67
2022/11/08 09:35:47;;;;;;;3.33;1.90;;;24.70;31.80;;;;;;5073715;28;20471;-68
2022/11/08 09:38:14;;;;;;;3.63;1.93;;;23.60;32.90;;;;;;5073973;28;20435;-64
2022/11/08 09:40:49;;;;;;;4.67;1.90;;;22.60;34.90;;;;;;5073108;28;20432;-64
2022/11/08 09:43:32;;;;;;;4.87;2.13;;;21.70;36.60;;;;;;5073182;28;20821;-65
2022/11/08 09:45:59;;;;;;;2.93;2.13;;;20.80;37.70;;;;;;5074377;28;20444;-68
2022/11/08 09:48:32;;;;;;;3.37;2.00;;;20.20;38.20;;;;;;5073577;28;20428;-68
2022/11/08 09:51:03;;;;;;;2.73;1.57;;;19.60;39.40;;;;;;5069120;28;20436;-68
2022/11/08 09:53:52;;;;;;;2.50;1.40;;;19.20;39.90;;;;;;5072638;28;20500;-68
2022/11/08 09:56:27;;;;;;;2.33;1.53;;;19.10;41.10;;;;;;5071736;28;20804;-67
2022/11/08 09:59:01;;;;;;;3.43;1.20;;;19.00;40.60;;;;;;5073406;28;20835;-67
2022/11/08 10:01:31;;;;;;;3.10;1.57;;;18.70;40.20;;;;;;5072983;28;21046;-67
2022/11/08 10:04:02;;;;;;;3.93;1.83;;;18.50;41.40;;;;;;5073098;28;20478;-67
2022/11/08 10:06:54;;;;;;;3.77;2.37;;;18.50;41.90;;;;;;5069354;28;20435;-67
2022/11/08 10:09:42;;;;;;;3.00;1.43;;;18.60;41.80;;;;;;5069316;28;20439;-68
2022/11/08 10:12:18;;;;;;;4.33;1.83;;;19.50;42.70;;;;;;5072587;28;20429;-68
2022/11/08 10:14:59;;;;;;;2.40;1.17;;;22.00;41.50;;;;;;5073028;28;20508;-67
2022/11/08 10:17:41;;;;;;;3.40;2.00;;;23.70;37.60;;;;;;5069301;28;20442;-67
2022/11/08 10:20:17;;;;;;;6.77;1.90;;;25.10;35.50;;;;;;5072233;28;20538;-67
2022/11/08 10:22:52;;;;;;;6.50;1.40;;;26.30;33.30;;;;;;5072803;28;20454;-67
2022/11/08 10:25:23;;;;;;;2.87;1.93;;;26.70;33.00;;;;;;5072138;28;20428;-68
2022/11/08 10:28:05;;;;;;;2.50;1.73;;;26.60;31.20;;;;;;5072164;28;20464;-68
2022/11/08 10:30:36;;;;;;;3.30;1.77;;;25.70;30.80;;;;;;5072146;28;20443;-68
2022/11/08 10:33:16;;;;;;;3.20;1.50;;;24.80;32.00;;;;;;5072828;28;20511;-68
2022/11/08 10:35:47;;;;;;;2.97;1.80;;;24.00;33.00;;;;;;5069466;28;20432;-65
2022/11/08 10:38:19;;;;;;;3.30;2.30;;;23.50;34.50;;;;;;5071696;28;20428;-65
2022/11/08 10:40:56;;;;;;;2.97;1.60;;;23.30;35.00;;;;;;5071708;28;20431;-66
2022/11/08 10:43:30;;;;;;;3.27;1.70;;;23.70;36.10;;;;;;5068244;28;20423;-65
2022/11/08 10:46:00;;;;;;;5.80;2.10;;;25.10;34.10;;;;;;5071654;28;20459;-65
2022/11/08 10:48:27;;;;;;;2.77;1.47;;;27.40;31.90;;;;;;5068039;28;20779;-68
2022/11/08 10:50:55;;;;;;;3.03;1.60;;;30.10;28.00;;;;;;5071356;28;20537;-68
2022/11/08 10:53:26;;;;;;;3.73;1.60;;;32.60;25.70;;;;;;5070943;28;20562;-65
2022/11/08 10:56:00;;;;;;;3.00;1.57;;;34.50;23.30;;;;;;5071030;28;20511;-65
2022/11/08 10:58:32;;;;;;;3.57;1.83;;;36.00;22.00;;;;;;5071863;28;21069;-65
2022/11/08 11:01:04;;;;;;;2.90;1.70;;;36.90;20.20;;;;;;5072840;28;20431;-67
2022/11/08 11:03:31;;;;;;;2.73;1.87;;;36.80;19.20;;;;;;5073331;28;20436;-68
2022/11/08 11:06:00;;;;;;;2.80;1.60;;;37.00;18.70;;;;;;5073755;28;20468;-67
2022/11/08 11:08:28;;;;;;;2.43;1.50;;;37.60;18.10;;;;;;5073957;28;20440;-67
2022/11/08 11:10:55;;;;;;;3.60;2.00;;;38.00;16.90;;;;;;5073815;28;20444;-67
2022/11/08 11:13:26;;;;;;;2.60;2.03;;;38.30;17.00;;;;;;5073815;28;20490;-67
2022/11/08 11:16:01;;;;;;;3.00;1.30;;;38.60;17.10;;;;;;5073819;28;20436;-67
2022/11/08 11:18:32;;;;;;;2.73;1.67;;;39.00;16.20;;;;;;5073633;28;20465;-67
2022/11/08 11:21:13;;;;;;;2.70;1.43;;;39.10;16.00;;;;;;5073547;28;20471;-67
2022/11/08 11:23:44;;;;;;;3.23;1.70;;;39.00;15.80;;;;;;5073524;28;20525;-67
2022/11/08 11:26:27;;;;;;;2.87;1.50;;;39.00;16.30;;;;;;5073257;28;20475;-67
2022/11/08 11:29:27;;;;;;;3.73;1.50;;;39.10;16.00;;;;;;5073326;28;20464;-67
2022/11/08 11:31:55;;;;;;;2.87;1.83;;;39.60;15.50;;;;;;5073346;28;20440;-67
2022/11/08 11:34:40;;;;;;;4.43;1.50;;;39.50;15.20;;;;;;5073412;28;20435;-67
2022/11/08 11:37:17;;;;;;;2.77;1.70;;;38.10;15.60;;;;;;5073458;28;20979;-66
2022/11/08 11:39:51;;;;;;;3.03;1.77;;;36.20;16.10;;;;;;5073448;28;20498;-67
2022/11/08 11:42:24;;;;;;;3.67;1.50;;;34.40;17.50;;;;;;5073352;28;21002;-66
2022/11/08 11:45:02;;;;;;;2.80;1.50;;;33.20;18.80;;;;;;5073225;28;20926;-66
2022/11/08 11:47:32;;;;;;;3.50;2.60;;;33.40;19.50;;;;;;5073656;28;20493;-66
2022/11/08 11:50:12;;;;;;;2.60;1.70;;;34.20;19.20;;;;;;5073233;28;20517;-66
2022/11/08 11:52:40;;;;;;;4.63;1.63;;;35.50;18.70;;;;;;5073349;28;20472;-67
2022/11/08 11:55:12;;;;;;;2.50;1.67;;;36.80;17.50;;;;;;5072973;28;20432;-67
2022/11/08 11:57:47;;;;;;;2.40;1.67;;;36.90;16.10;;;;;;5073008;28;20477;-67
2022/11/08 12:00:16;;;;;;;2.23;1.20;;;36.90;16.90;;;;;;5073221;28;20443;-67
2022/11/08 12:03:27;;;;;;;3.00;1.60;;;37.20;16.60;;;;;;5072765;28;20435;-66
2022/11/08 12:06:29;;;;;;;3.47;2.00;;;36.90;16.50;;;;;;5072489;28;20444;-67
2022/11/08 12:09:12;;;;;;;2.70;1.73;;;36.40;16.50;;;;;;5050565;28;20439;-66
2022/11/08 12:11:53;;;;;;;2.40;1.50;;;36.40;16.20;;;;;;5072475;28;20438;-66
2022/11/08 12:14:41;;;;;;;4.17;2.17;;;36.10;16.00;;;;;;5073054;28;20436;-66
2022/11/08 12:17:35;;;;;;;5.57;1.90;;;35.50;16.70;;;;;;5072897;28;20432;-67
2022/11/08 12:20:35;;;;;;;3.10;1.70;;;34.60;18.20;;;;;;5072998;28;20975;-66
2022/11/08 12:23:24;;;;;;;4.40;1.80;;;33.10;18.40;;;;;;5070021;28;20471;-66
2022/11/08 12:26:01;;;;;;;3.87;1.93;;;32.60;19.60;;;;;;5072777;28;20436;-66
2022/11/08 12:28:46;;;;;;;3.10;2.00;;;33.10;19.60;;;;;;5072820;28;20491;-66
2022/11/08 12:31:25;;;;;;;2.90;1.53;;;34.00;19.40;;;;;;5072832;28;20431;-66
2022/11/08 12:34:14;;;;;;;2.60;1.10;;;34.70;18.90;;;;;;5072817;28;20874;-66
2022/11/08 12:36:54;;;;;;;2.43;1.57;;;34.50;18.70;;;;;;5072898;28;20470;-66
2022/11/08 12:39:34;;;;;;;2.63;1.47;;;33.10;19.20;;;;;;5072789;28;20439;-66
2022/11/08 12:42:22;;;;;;;3.20;1.40;;;31.80;20.90;;;;;;5072711;28;20439;-67
2022/11/08 12:45:21;;;;;;;4.67;1.60;;;31.90;21.90;;;;;;5072806;28;20515;-66
2022/11/08 12:47:56;;;;;;;2.77;1.37;;;31.40;22.20;;;;;;5072823;28;20427;-66
2022/11/08 12:50:29;;;;;;;3.00;1.40;;;31.30;22.30;;;;;;5072522;28;20965;-66
2022/11/08 12:53:26;;;;;;;2.93;1.50;;;31.30;22.30;;;;;;5072805;28;20494;-66
2022/11/08 12:55:57;;;;;;;3.43;1.70;;;31.10;22.90;;;;;;5072570;28;20436;-66
2022/11/08 12:58:31;;;;;;;3.03;1.57;;;31.00;23.10;;;;;;5072417;28;21011;-66
2022/11/08 13:01:03;;;;;;;2.87;1.70;;;31.00;23.10;;;;;;5072947;28;20435;-66
2022/11/08 13:03:57;;;;;;;2.40;1.43;;;29.90;23.30;;;;;;5072441;28;20460;-66
2022/11/08 13:06:29;;;;;;;2.93;1.60;;;28.80;24.00;;;;;;5072598;28;20424;-66
2022/11/08 13:09:04;;;;;;;3.53;1.50;;;28.90;24.70;;;;;;5072072;28;20940;-66
2022/11/08 13:11:39;;;;;;;5.73;2.10;;;29.00;24.50;;;;;;5072379;28;20886;-67
2022/11/08 13:14:12;;;;;;;3.10;1.57;;;28.50;24.40;;;;;;5072173;28;20439;-66
2022/11/08 13:16:43;;;;;;;4.00;1.37;;;27.90;25.00;;;;;;5074878;28;20762;-66
2022/11/08 13:19:27;;;;;;;5.27;1.60;;;27.10;25.50;;;;;;5076131;28;20467;-66
2022/11/08 13:21:55;;;;;;;3.20;1.30;;;26.10;26.20;;;;;;5076121;28;20475;-66
2022/11/08 13:24:36;;;;;;;5.73;4.23;;;25.40;27.30;;;;;;5075548;28;20480;-66
2022/11/08 13:27:33;;;;;;;2.80;1.70;;;24.70;28.30;;;;;;5075654;28;20428;-67
2022/11/08 13:30:20;;;;;;;2.50;1.30;;;23.90;29.00;;;;;;5075913;28;20763;-66
2022/11/08 13:32:53;;;;;;;3.60;1.47;;;23.30;29.60;;;;;;5076796;28;20436;-66